Time;durP1;ratioP1;P1;durP2;ratioP2;P2;SDS_P1;SDS_P2;PMS_P1;PMS_P2;Temp;Humidity;BMP_temperature;BMP_pressure;BME280_temperature;BME280_humidity;BME280_pressure;Samples;Min_cycle;Max_cycle;Signal;HPM_P1;HPM_P2
2022/08/30 00:02:57;;;;;;;12.97;8.33;;;;;;;20.30;78.01;98338.75;4175456;28;20670;-87
2022/08/30 00:05:01;;;;;;;10.13;7.90;;;;;;;20.29;78.04;98331.78;4161237;28;20626;-87
2022/08/30 00:07:04;;;;;;;9.10;7.10;;;;;;;20.28;79.05;98334.59;4178070;28;20989;-87
2022/08/30 00:09:07;;;;;;;9.00;7.83;;;;;;;20.26;79.47;98336.59;4178626;28;21204;-87
2022/08/30 00:11:13;;;;;;;8.17;7.37;;;;;;;20.23;80.18;98342.19;4174449;28;20701;-87
2022/08/30 00:13:16;;;;;;;9.83;7.40;;;;;;;20.22;79.06;98337.88;4178908;28;20696;-86
2022/08/30 00:15:19;;;;;;;10.97;7.60;;;;;;;20.19;80.20;98343.50;4177934;28;20647;-86
2022/08/30 00:17:22;;;;;;;8.63;7.73;;;;;;;20.19;80.15;98336.41;4177092;28;20641;-86
2022/08/30 00:19:27;;;;;;;8.77;7.33;;;;;;;20.19;78.78;98335.53;4178643;28;20640;-87
2022/08/30 00:21:30;;;;;;;8.20;7.20;;;;;;;20.16;79.24;98338.50;4158227;28;20624;-88
2022/08/30 00:23:33;;;;;;;9.23;8.20;;;;;;;20.14;79.31;98332.53;4161729;28;20999;-87
2022/08/30 00:25:36;;;;;;;8.90;8.10;;;;;;;20.12;79.13;98335.34;4178413;28;20636;-87
2022/08/30 00:27:39;;;;;;;11.97;7.83;;;;;;;20.11;78.45;98338.16;4179008;28;20698;-87
2022/08/30 00:29:42;;;;;;;9.23;7.50;;;;;;;20.05;79.11;98339.59;4175251;28;20621;-87
2022/08/30 00:31:45;;;;;;;9.20;8.00;;;;;;;20.02;78.77;98347.03;4170786;28;20641;-87
2022/08/30 00:33:48;;;;;;;11.67;7.83;;;;;;;19.97;78.87;98338.75;4177990;28;21228;-86
2022/08/30 00:35:52;;;;;;;8.23;7.03;;;;;;;19.92;81.18;98333.91;4177046;28;20629;-86
2022/08/30 00:37:55;;;;;;;9.53;8.60;;;;;;;19.86;80.71;98328.44;4174921;28;20701;-87
2022/08/30 00:39:58;;;;;;;8.93;7.90;;;;;;;19.82;80.02;98334.16;4172600;28;20626;-86
2022/08/30 00:42:01;;;;;;;9.57;8.60;;;;;;;19.80;79.92;98334.31;4175351;28;20697;-87
2022/08/30 00:44:05;;;;;;;11.70;8.30;;;;;;;19.79;80.90;98337.94;4178061;28;20644;-86
2022/08/30 00:46:09;;;;;;;10.80;8.50;;;;;;;19.78;81.50;98338.91;4173627;28;20688;-87
2022/08/30 00:48:12;;;;;;;10.53;8.67;;;;;;;19.76;81.47;98343.53;4160885;28;20713;-87
2022/08/30 00:50:17;;;;;;;9.33;8.17;;;;;;;19.72;81.10;98341.34;4175926;28;20686;-87
2022/08/30 00:52:22;;;;;;;10.57;8.90;;;;;;;19.69;80.14;98347.78;4175814;28;20700;-87
2022/08/30 00:54:25;;;;;;;9.43;8.43;;;;;;;19.64;81.05;98341.31;4174737;28;20681;-87
2022/08/30 00:56:29;;;;;;;10.20;8.10;;;;;;;19.60;81.49;98346.06;4189207;28;20633;-87
2022/08/30 00:58:36;;;;;;;8.97;7.77;;;;;;;19.56;80.70;98342.06;4186668;28;20620;-86
2022/08/30 01:00:39;;;;;;;10.33;7.83;;;;;;;19.53;81.39;98346.81;4174690;28;20623;-86
2022/08/30 01:02:42;;;;;;;10.30;8.23;;;;;;;19.50;81.27;98336.53;4161095;28;20667;-87
2022/08/30 01:04:46;;;;;;;9.80;8.10;;;;;;;19.48;81.69;98344.66;4176246;28;20655;-87
2022/08/30 01:06:49;;;;;;;8.63;7.77;;;;;;;19.45;81.88;98334.38;4177510;28;20667;-87
2022/08/30 01:08:53;;;;;;;9.50;8.13;;;;;;;19.40;81.54;98341.94;4175342;28;20687;-87
2022/08/30 01:10:57;;;;;;;9.63;8.67;;;;;;;19.38;82.50;98343.91;4173451;28;20650;-86
2022/08/30 01:13:00;;;;;;;11.70;8.13;;;;;;;19.36;82.43;98331.81;4178898;28;20743;-87
2022/08/30 01:15:05;;;;;;;9.63;8.30;;;;;;;19.36;81.43;98344.22;4172538;28;20690;-86
2022/08/30 01:17:09;;;;;;;8.97;7.50;;;;;;;19.32;82.01;98337.56;4156969;28;20733;-87
2022/08/30 01:19:21;;;;;;;11.93;8.60;;;;;;;19.32;81.82;98342.84;4175428;28;20994;-87
2022/08/30 01:21:29;;;;;;;9.20;8.03;;;;;;;19.30;81.43;98345.63;4171878;28;20644;-86
2022/08/30 01:23:35;;;;;;;11.23;8.80;;;;;;;19.30;81.58;98347.47;4177544;28;20655;-87
2022/08/30 01:25:42;;;;;;;9.23;8.30;;;;;;;19.28;82.71;98349.44;4175000;28;20673;-87
2022/08/30 01:27:49;;;;;;;10.67;7.70;;;;;;;19.28;82.97;98344.97;4161416;28;20635;-87
2022/08/30 01:29:52;;;;;;;9.23;8.23;;;;;;;19.26;82.79;98354.03;4156625;28;20689;-87
2022/08/30 01:31:55;;;;;;;9.87;8.10;;;;;;;19.26;81.34;98357.53;4171531;28;20678;-87
2022/08/30 01:33:58;;;;;;;11.30;8.87;;;;;;;19.26;82.54;98354.03;4160439;28;20633;-87
2022/08/30 01:36:05;;;;;;;10.10;9.17;;;;;;;19.25;82.51;98347.09;4177180;28;21021;-86
2022/08/30 01:38:08;;;;;;;8.93;8.03;;;;;;;19.21;82.25;98345.72;4173020;28;21229;-87
2022/08/30 01:40:14;;;;;;;10.87;8.50;;;;;;;19.20;82.75;98346.69;4157034;28;20704;-87
2022/08/30 01:42:17;;;;;;;10.10;8.40;;;;;;;19.17;81.95;98344.34;4174204;28;20700;-87
2022/08/30 01:44:21;;;;;;;10.40;8.93;;;;;;;19.15;82.31;98341.03;4169488;28;20669;-87
2022/08/30 01:46:27;;;;;;;9.33;8.40;;;;;;;19.13;83.31;98345.66;4161032;28;20620;-87
2022/08/30 01:48:30;;;;;;;11.27;9.03;;;;;;;19.10;82.66;98338.03;4173439;28;20632;-87
2022/08/30 01:50:33;;;;;;;9.50;8.60;;;;;;;19.07;83.27;98339.16;4198294;28;20622;-87
2022/08/30 01:52:40;;;;;;;9.80;8.27;;;;;;;19.05;82.75;98340.31;4175036;28;20696;-86
2022/08/30 01:54:44;;;;;;;11.90;9.37;;;;;;;19.05;83.46;98345.59;4171709;28;20632;-87
2022/08/30 01:56:49;;;;;;;10.17;8.40;;;;;;;19.05;82.90;98340.31;4200995;28;20638;-87
2022/08/30 01:58:53;;;;;;;13.80;9.53;;;;;;;19.05;82.50;98342.94;4173523;28;20685;-87
2022/08/30 02:00:56;;;;;;;12.37;9.57;;;;;;;19.03;83.53;98343.09;4174570;28;20625;-87
2022/08/30 02:03:00;;;;;;;10.70;9.60;;;;;;;19.05;82.86;98343.75;4176261;28;21188;-86
2022/08/30 02:05:05;;;;;;;9.83;8.80;;;;;;;19.03;82.81;98345.75;4179884;28;20687;-87
2022/08/30 02:07:08;;;;;;;12.17;8.17;;;;;;;19.00;82.18;98347.78;4175984;28;20659;-87
2022/08/30 02:09:13;;;;;;;12.33;9.10;;;;;;;18.99;82.32;98346.97;4180736;28;20677;-87
2022/08/30 02:11:17;;;;;;;9.97;9.00;;;;;;;18.95;82.57;98350.88;4180809;28;21187;-87
2022/08/30 02:13:21;;;;;;;12.03;8.23;;;;;;;18.93;83.05;98352.03;4175286;28;21015;-86
2022/08/30 02:15:24;;;;;;;11.07;8.90;;;;;;;18.89;82.97;98348.84;4175981;28;20636;-87
2022/08/30 02:17:27;;;;;;;9.70;8.63;;;;;;;18.87;82.92;98352.63;4204265;28;21172;-86
2022/08/30 02:19:30;;;;;;;9.83;8.60;;;;;;;18.86;83.14;98348.31;4179010;28;20674;-87
2022/08/30 02:21:33;;;;;;;9.70;8.40;;;;;;;18.84;83.21;98358.22;4178305;28;20635;-87
2022/08/30 02:23:37;;;;;;;13.33;9.17;;;;;;;18.82;83.46;98356.69;4179530;28;20734;-87
2022/08/30 02:25:40;;;;;;;9.93;9.00;;;;;;;18.81;82.96;98350.59;4179981;28;21055;-87
2022/08/30 02:27:43;;;;;;;10.30;8.40;;;;;;;18.79;83.03;98354.34;4181745;28;20646;-87
2022/08/30 02:29:48;;;;;;;10.60;9.33;;;;;;;18.75;83.06;98345.91;4177971;28;20710;-87
2022/08/30 02:31:51;;;;;;;9.97;8.80;;;;;;;18.74;83.27;98335.47;4180508;28;20638;-85
2022/08/30 02:33:54;;;;;;;10.40;8.50;;;;;;;18.73;83.52;98341.72;4180440;28;20620;-85
2022/08/30 02:35:57;;;;;;;12.73;9.60;;;;;;;18.71;83.75;98338.41;4180102;28;20642;-85
2022/08/30 02:38:01;;;;;;;11.17;9.50;;;;;;;18.69;83.63;98340.38;4163969;28;20628;-85
2022/08/30 02:40:05;;;;;;;9.70;8.80;;;;;;;18.68;83.52;98336.88;4178228;28;20671;-85
2022/08/30 02:42:08;;;;;;;10.07;9.07;;;;;;;18.66;83.65;98330.09;4179195;28;20646;-85
2022/08/30 02:44:11;;;;;;;15.43;8.90;;;;;;;18.64;83.65;98332.03;4162023;28;20653;-86
2022/08/30 02:46:16;;;;;;;12.30;9.30;;;;;;;18.59;83.95;98332.50;4173577;28;20639;-85
2022/08/30 02:48:20;;;;;;;9.43;8.50;;;;;;;18.57;84.03;98331.81;4159592;28;21201;-85
2022/08/30 02:50:23;;;;;;;9.53;8.63;;;;;;;18.54;84.19;98334.75;4170053;28;20624;-86
2022/08/30 02:52:26;;;;;;;10.00;8.90;;;;;;;18.50;84.24;98325.44;4175594;28;20622;-85
2022/08/30 02:54:31;;;;;;;11.03;9.47;;;;;;;18.48;84.45;98339.81;4174695;28;20627;-85
2022/08/30 02:56:35;;;;;;;10.57;9.43;;;;;;;18.45;84.57;98337.47;4177139;28;20680;-85
2022/08/30 02:58:38;;;;;;;11.03;8.70;;;;;;;18.40;84.72;98336.22;4177437;28;20693;-85
2022/08/30 03:00:42;;;;;;;11.30;10.20;;;;;;;18.36;84.55;98332.19;4178930;28;20630;-85
2022/08/30 03:02:46;;;;;;;10.97;9.80;;;;;;;18.34;84.55;98332.34;4176363;28;20709;-85
2022/08/30 03:04:50;;;;;;;13.30;9.60;;;;;;;18.31;85.38;98331.81;4179610;28;21072;-85
2022/08/30 03:06:53;;;;;;;10.50;8.97;;;;;;;18.32;84.97;98328.19;4173445;28;20682;-85
2022/08/30 03:08:56;;;;;;;10.83;9.50;;;;;;;18.31;85.37;98331.81;4177290;28;20698;-85
2022/08/30 03:10:59;;;;;;;12.43;10.20;;;;;;;18.28;85.23;98335.59;4174079;28;20718;-85
2022/08/30 03:13:04;;;;;;;11.17;9.93;;;;;;;18.26;85.57;98334.06;4168344;28;20656;-85
2022/08/30 03:15:09;;;;;;;12.13;10.53;;;;;;;18.27;85.25;98339.22;4177305;28;21126;-85
2022/08/30 03:17:12;;;;;;;12.30;9.37;;;;;;;18.27;85.30;98338.38;4174225;28;20676;-86
2022/08/30 03:19:19;;;;;;;10.93;9.83;;;;;;;18.27;85.19;98343.66;4173376;28;20686;-85
2022/08/30 03:21:22;;;;;;;11.43;9.90;;;;;;;18.26;84.42;98331.44;4173583;28;20652;-85
2022/08/30 03:23:25;;;;;;;11.40;9.60;;;;;;;18.26;85.58;98328.78;4174802;28;20726;-85
2022/08/30 03:25:28;;;;;;;10.60;9.50;;;;;;;18.25;85.24;98327.97;4162899;28;20781;-85
2022/08/30 03:27:31;;;;;;;11.77;9.77;;;;;;;18.26;84.98;98331.44;4177990;28;20618;-85
2022/08/30 03:29:35;;;;;;;10.07;9.03;;;;;;;18.24;85.00;98317.53;4173841;28;20750;-85
2022/08/30 03:31:38;;;;;;;10.63;9.00;;;;;;;18.23;85.52;98315.88;4179051;28;20634;-85
2022/08/30 03:33:55;;;;;;;12.70;10.63;;;;;;;18.20;85.06;98318.81;4178164;28;20627;-84
2022/08/30 03:36:00;;;;;;;10.40;9.30;;;;;;;18.16;85.69;98317.41;4162421;28;20692;-86
2022/08/30 03:38:03;;;;;;;11.90;9.50;;;;;;;18.12;85.21;98316.84;4172573;28;20704;-85
2022/08/30 03:40:08;;;;;;;11.50;10.30;;;;;;;18.11;85.38;98323.09;4180679;28;20598;-85
2022/08/30 03:42:12;;;;;;;12.10;10.13;;;;;;;18.09;85.36;98322.44;4176243;28;20645;-85
2022/08/30 03:44:17;;;;;;;10.30;9.07;;;;;;;18.09;85.32;98321.59;4162223;28;20642;-85
2022/08/30 03:46:21;;;;;;;10.33;9.30;;;;;;;18.04;85.45;98329.09;4162916;28;20664;-85
2022/08/30 03:48:31;;;;;;;13.33;10.10;;;;;;;18.01;85.51;98324.13;4172306;28;21199;-85
2022/08/30 03:50:35;;;;;;;10.53;9.10;;;;;;;17.98;85.41;98329.69;4176167;28;20622;-85
2022/08/30 03:52:40;;;;;;;11.53;10.30;;;;;;;17.95;85.50;98324.69;4178074;28;20642;-85
2022/08/30 03:54:43;;;;;;;12.40;9.07;;;;;;;17.93;85.78;98324.00;4179117;28;21048;-85
2022/08/30 03:56:46;;;;;;;11.93;9.80;;;;;;;17.90;85.82;98321.66;4178179;28;20648;-85
2022/08/30 03:58:49;;;;;;;11.20;9.60;;;;;;;17.86;85.78;98324.72;4177297;28;20638;-86
2022/08/30 04:00:52;;;;;;;15.03;10.00;;;;;;;17.82;85.57;98315.47;4176034;28;20617;-85
2022/08/30 04:02:55;;;;;;;10.87;9.63;;;;;;;17.81;86.02;98316.44;4161980;28;20723;-84
2022/08/30 04:04:58;;;;;;;12.33;10.03;;;;;;;17.80;85.64;98315.59;4174674;28;20661;-85
2022/08/30 04:07:01;;;;;;;11.33;10.17;;;;;;;17.78;85.55;98317.53;4156300;28;20662;-85
2022/08/30 04:09:06;;;;;;;12.10;10.80;;;;;;;17.76;85.78;98324.78;4176585;28;21217;-85
2022/08/30 04:11:09;;;;;;;11.03;9.93;;;;;;;17.75;86.64;98317.81;4174572;28;20614;-86
2022/08/30 04:13:12;;;;;;;12.87;10.33;;;;;;;17.75;85.52;98319.63;4173631;28;20621;-85
2022/08/30 04:15:16;;;;;;;11.67;10.57;;;;;;;17.75;86.50;98328.38;4175618;28;20614;-85
2022/08/30 04:17:19;;;;;;;16.70;10.07;;;;;;;17.73;85.71;98325.06;4178842;28;21031;-85
2022/08/30 04:19:22;;;;;;;11.90;10.17;;;;;;;17.75;87.12;98332.81;4176082;28;20703;-85
2022/08/30 04:21:25;;;;;;;10.27;9.17;;;;;;;17.76;86.34;98323.94;4171985;28;20754;-85
2022/08/30 04:23:28;;;;;;;11.13;10.03;;;;;;;17.75;86.07;98332.81;4173574;28;20705;-87
2022/08/30 04:25:33;;;;;;;10.87;9.07;;;;;;;17.74;86.62;98325.88;4175770;28;20749;-87
2022/08/30 04:27:36;;;;;;;12.20;9.80;;;;;;;17.72;85.78;98323.38;4176647;28;20630;-88
2022/08/30 04:29:39;;;;;;;12.00;10.73;;;;;;;17.71;86.08;98326.16;4173237;28;20630;-87
2022/08/30 04:31:42;;;;;;;14.23;10.33;;;;;;;17.70;86.54;98325.34;4161060;28;20635;-85
2022/08/30 04:33:45;;;;;;;15.80;11.30;;;;;;;17.71;85.97;98321.75;4176092;28;20632;-86
2022/08/30 04:35:49;;;;;;;11.87;10.67;;;;;;;17.70;86.48;98320.06;4179701;28;20612;-85
2022/08/30 04:37:53;;;;;;;10.80;9.70;;;;;;;17.72;86.19;98318.09;4155336;28;20631;-85
2022/08/30 04:39:56;;;;;;;12.80;9.90;;;;;;;17.71;86.17;98326.16;4174391;28;20637;-85
2022/08/30 04:42:02;;;;;;;14.43;10.73;;;;;;;17.71;86.42;98321.75;4188202;28;20668;-84
2022/08/30 04:44:05;;;;;;;13.53;10.33;;;;;;;17.69;86.23;98320.22;4174868;28;21223;-85
2022/08/30 04:46:09;;;;;;;12.10;10.77;;;;;;;17.68;86.25;98332.56;4171770;28;20657;-85
2022/08/30 04:48:12;;;;;;;10.83;9.77;;;;;;;17.64;86.43;98330.38;4173340;28;20722;-87
2022/08/30 04:50:17;;;;;;;12.30;10.53;;;;;;;17.63;85.78;98340.06;4177547;28;20632;-87
2022/08/30 04:52:20;;;;;;;10.90;9.80;;;;;;;17.62;86.53;98341.06;4178099;28;20614;-87
2022/08/30 04:54:23;;;;;;;11.73;9.97;;;;;;;17.63;86.32;98334.78;4177553;28;20691;-87
2022/08/30 04:56:26;;;;;;;11.37;9.80;;;;;;;17.65;86.93;98345.19;4174120;28;20602;-86
2022/08/30 04:58:30;;;;;;;12.17;10.63;;;;;;;17.65;86.86;98343.41;4159748;28;21220;-87
2022/08/30 05:00:34;;;;;;;11.33;10.23;;;;;;;17.66;86.31;98345.06;4171138;28;21240;-87
2022/08/30 05:02:37;;;;;;;12.73;11.00;;;;;;;17.65;85.65;98346.06;4171499;28;20672;-87
2022/08/30 05:05:38;;;;;;;11.90;10.70;;;;;;;17.68;86.08;98353.69;4178211;28;20686;-87
2022/08/30 05:07:04;;;;;;;11.30;10.10;;;;;;;17.73;85.91;98355.91;4176457;28;20660;-87
2022/08/30 05:09:07;;;;;;;11.43;10.10;;;;;;;17.76;86.74;98351.16;4168305;28;21298;-87
2022/08/30 05:11:10;;;;;;;12.10;10.30;;;;;;;17.83;86.07;98356.69;4175092;28;20629;-87
2022/08/30 05:13:14;;;;;;;12.47;10.30;;;;;;;17.90;86.48;98358.63;4176646;28;20645;-88
2022/08/30 05:15:20;;;;;;;11.57;10.37;;;;;;;17.96;86.59;98353.59;4173616;28;20760;-87
2022/08/30 05:17:23;;;;;;;13.23;10.47;;;;;;;18.08;85.64;98359.53;4159827;28;20621;-87
2022/08/30 05:19:26;;;;;;;13.17;9.93;;;;;;;18.20;85.57;98366.34;4175983;28;20689;-88
2022/08/30 05:21:32;;;;;;;11.97;10.60;;;;;;;18.31;84.96;98369.66;4172442;28;20692;-87
2022/08/30 05:23:35;;;;;;;11.43;10.20;;;;;;;18.43;83.91;98371.94;4176117;28;21209;-87
2022/08/30 05:25:41;;;;;;;15.20;10.53;;;;;;;18.55;83.82;98376.06;4176454;28;20670;-87
2022/08/30 05:27:44;;;;;;;10.97;9.83;;;;;;;18.65;83.07;98379.47;4161493;28;20637;-87
2022/08/30 05:29:47;;;;;;;13.87;10.67;;;;;;;18.75;82.96;98377.63;4178174;28;20637;-87
2022/08/30 05:31:51;;;;;;;12.30;11.10;;;;;;;18.83;82.49;98377.69;4160974;28;20635;-87
2022/08/30 05:33:55;;;;;;;10.93;9.23;;;;;;;18.96;82.71;98386.13;4173777;28;20645;-87
2022/08/30 05:35:58;;;;;;;12.97;10.30;;;;;;;19.06;82.56;98377.19;4176917;28;20643;-88
2022/08/30 05:38:02;;;;;;;14.50;10.40;;;;;;;19.17;81.89;98387.53;4173028;28;20611;-87
2022/08/30 05:40:07;;;;;;;12.60;9.97;;;;;;;19.30;81.04;98384.50;4173598;28;20634;-87
2022/08/30 05:42:13;;;;;;;12.50;10.53;;;;;;;19.40;81.44;98389.56;4173983;28;20635;-87
2022/08/30 05:44:18;;;;;;;13.33;10.70;;;;;;;19.53;81.74;98397.94;4174091;28;20691;-87
2022/08/30 05:46:31;;;;;;;10.90;9.30;;;;;;;19.67;79.87;98391.28;4176566;28;20655;-87
2022/08/30 05:48:41;;;;;;;11.80;10.50;;;;;;;19.83;80.83;98398.38;4170160;28;20623;-87
2022/08/30 05:50:44;;;;;;;11.03;9.83;;;;;;;19.95;79.93;98399.81;4168920;28;20638;-87
2022/08/30 05:52:47;;;;;;;12.43;9.93;;;;;;;20.09;78.69;98401.06;4189349;28;20657;-88
2022/08/30 05:54:53;;;;;;;13.70;10.80;;;;;;;20.25;77.65;98403.81;4175719;28;20661;-87
2022/08/30 05:56:56;;;;;;;13.60;10.57;;;;;;;20.40;77.42;98393.31;4175194;28;20623;-87
2022/08/30 05:59:00;;;;;;;10.30;9.17;;;;;;;20.54;76.61;98398.00;4173777;28;20685;-87
2022/08/30 06:01:03;;;;;;;10.80;9.57;;;;;;;20.67;77.09;98392.25;4174392;28;20653;-87
2022/08/30 06:03:07;;;;;;;12.00;10.63;;;;;;;20.80;76.58;98385.56;4161173;28;20635;-87
2022/08/30 06:05:12;;;;;;;11.20;9.80;;;;;;;20.92;76.42;98384.28;4159225;28;21211;-87
2022/08/30 06:07:16;;;;;;;11.17;9.67;;;;;;;21.08;76.77;98397.56;4177411;28;20659;-87
2022/08/30 06:09:24;;;;;;;12.07;10.63;;;;;;;21.20;74.96;98406.88;4174646;28;20630;-87
2022/08/30 06:11:27;;;;;;;15.73;11.57;;;;;;;21.32;75.73;98401.94;4178020;28;20652;-87
2022/08/30 06:13:31;;;;;;;11.17;9.80;;;;;;;21.44;75.93;98405.94;4176477;28;20987;-87
2022/08/30 06:15:34;;;;;;;14.37;11.07;;;;;;;21.53;74.55;98404.16;4160841;28;20633;-87
2022/08/30 06:17:38;;;;;;;10.47;9.43;;;;;;;21.65;74.86;98400.16;4176702;28;21208;-87
2022/08/30 06:19:41;;;;;;;12.77;10.00;;;;;;;21.74;74.00;98401.84;4150558;28;21187;-88
2022/08/30 06:21:48;;;;;;;12.10;10.33;;;;;;;21.89;73.94;98403.66;4169322;28;20639;-87
2022/08/30 06:23:51;;;;;;;11.03;9.80;;;;;;;21.91;72.95;98407.00;4172805;28;21215;-87
2022/08/30 06:25:54;;;;;;;12.27;9.97;;;;;;;21.87;72.88;98401.16;4177383;28;20690;-87
2022/08/30 06:27:57;;;;;;;15.83;10.10;;;;;;;22.02;74.38;98409.31;4172637;28;20645;-87
2022/08/30 06:30:00;;;;;;;10.93;9.83;;;;;;;22.23;73.07;98405.97;4177334;28;20637;-87
2022/08/30 06:32:03;;;;;;;14.40;10.50;;;;;;;22.42;72.58;98415.44;4177319;28;21294;-84
2022/08/30 06:34:07;;;;;;;15.30;10.17;;;;;;;22.47;72.42;98415.72;4177386;28;20678;-85
2022/08/30 06:36:13;;;;;;;11.87;10.60;;;;;;;22.52;71.65;98414.22;4177435;28;20642;-85
2022/08/30 06:38:17;;;;;;;11.30;10.10;;;;;;;22.67;71.87;98414.34;4161199;28;20678;-85
2022/08/30 06:40:21;;;;;;;11.10;10.00;;;;;;;22.81;71.63;98404.63;4177007;28;21028;-87
2022/08/30 06:42:30;;;;;;;10.43;9.40;;;;;;;22.96;70.89;98410.94;4186142;28;21263;-85
2022/08/30 06:44:33;;;;;;;11.80;10.47;;;;;;;23.17;70.64;98404.97;4179467;28;20635;-85
2022/08/30 06:46:38;;;;;;;11.77;9.97;;;;;;;23.28;70.47;98392.13;4179165;28;21034;-85
2022/08/30 06:48:41;;;;;;;12.50;9.93;;;;;;;23.43;70.45;98395.69;4180306;28;20634;-85
2022/08/30 06:50:53;;;;;;;12.43;10.87;;;;;;;23.50;68.91;98400.13;4177002;28;20724;-85
2022/08/30 06:52:58;;;;;;;10.70;9.60;;;;;;;23.58;70.31;98397.41;4179723;28;20622;-84
2022/08/30 06:55:04;;;;;;;11.73;9.50;;;;;;;23.73;69.17;98403.66;4179265;28;20622;-85
2022/08/30 06:57:07;;;;;;;10.67;9.33;;;;;;;23.92;70.46;98400.47;4177045;28;20637;-85
2022/08/30 06:59:10;;;;;;;12.67;9.43;;;;;;;24.12;67.76;98390.97;4174056;28;20742;-85
2022/08/30 07:01:16;;;;;;;11.60;9.10;;;;;;;24.28;67.82;98399.63;4177235;28;20632;-85
2022/08/30 07:03:20;;;;;;;11.70;9.33;;;;;;;24.44;68.39;98405.66;4171893;28;20735;-85
2022/08/30 07:05:23;;;;;;;9.90;9.00;;;;;;;24.55;67.69;98401.69;4203586;28;21202;-86
2022/08/30 07:07:26;;;;;;;11.53;9.20;;;;;;;24.72;67.00;98396.84;4181005;28;21218;-85
2022/08/30 07:09:31;;;;;;;9.53;8.20;;;;;;;24.83;67.55;98400.88;4176984;28;21172;-85
2022/08/30 07:11:40;;;;;;;12.50;8.93;;;;;;;24.99;67.71;98403.34;4180222;28;21202;-86
2022/08/30 07:13:44;;;;;;;9.30;8.40;;;;;;;25.12;66.75;98407.03;4163658;28;20624;-85
2022/08/30 07:15:48;;;;;;;10.07;8.30;;;;;;;25.26;67.20;98400.84;4174615;28;20661;-85
2022/08/30 07:20:15;;;;;;;9.57;7.87;;;;;;;25.60;65.80;98399.13;4154993;28;20740;-85
2022/08/30 07:22:18;;;;;;;9.00;8.10;;;;;;;25.83;66.61;98402.47;4176750;28;20650;-85
2022/08/30 07:24:21;;;;;;;9.33;8.33;;;;;;;25.93;65.46;98403.81;4176920;28;20990;-88
2022/08/30 07:26:26;;;;;;;10.70;8.30;;;;;;;26.14;65.33;98404.59;4178880;28;20641;-86
2022/08/30 07:28:32;;;;;;;10.33;8.40;;;;;;;26.25;63.45;98397.88;4179808;28;20657;-86
2022/08/30 07:30:36;;;;;;;9.40;8.50;;;;;;;26.24;63.00;98402.41;4172744;28;21057;-86
2022/08/30 07:32:39;;;;;;;11.83;8.27;;;;;;;26.23;62.87;98405.28;4179111;28;21054;-86
2022/08/30 07:34:42;;;;;;;10.23;7.97;;;;;;;26.45;64.60;98414.97;4190469;28;20682;-88
2022/08/30 07:36:46;;;;;;;11.20;8.37;;;;;;;26.68;63.94;98406.44;4180746;28;20620;-88
2022/08/30 07:38:50;;;;;;;10.10;8.00;;;;;;;26.83;62.75;98406.34;4177036;28;20632;-85
2022/08/30 07:40:53;;;;;;;10.03;8.90;;;;;;;26.95;63.14;98410.97;4176337;28;20663;-86
2022/08/30 07:42:57;;;;;;;10.53;8.17;;;;;;;27.08;61.75;98414.53;4159157;28;20636;-88
2022/08/30 07:45:02;;;;;;;9.10;8.17;;;;;;;27.19;62.13;98413.94;4175721;28;20624;-86
2022/08/30 07:47:06;;;;;;;8.87;8.00;;;;;;;27.26;61.99;98414.00;4173835;28;20682;-86
2022/08/30 07:49:10;;;;;;;10.90;8.30;;;;;;;27.37;61.45;98408.06;4175437;28;20638;-86
2022/08/30 07:51:15;;;;;;;10.93;8.20;;;;;;;27.48;61.46;98413.63;4162921;28;20640;-86
2022/08/30 07:53:18;;;;;;;9.17;8.27;;;;;;;27.63;61.07;98412.50;4175968;28;20652;-88
2022/08/30 07:55:22;;;;;;;7.93;7.13;;;;;;;27.77;61.08;98411.47;4158290;28;20657;-86
2022/08/30 07:57:25;;;;;;;13.93;7.60;;;;;;;27.84;60.15;98404.25;4159657;28;20642;-85
2022/08/30 07:59:29;;;;;;;8.07;7.20;;;;;;;27.99;60.02;98417.47;4160964;28;20683;-88
2022/08/30 08:01:38;;;;;;;8.70;7.40;;;;;;;28.19;60.12;98411.97;4179533;28;20613;-85
2022/08/30 08:03:43;;;;;;;9.87;7.57;;;;;;;28.25;60.00;98415.66;4174437;28;20632;-88
2022/08/30 08:05:47;;;;;;;9.20;7.53;;;;;;;28.36;60.13;98417.72;4174397;28;20977;-86
2022/08/30 08:07:50;;;;;;;8.53;7.17;;;;;;;28.46;58.94;98412.75;4160146;28;20688;-86
2022/08/30 08:09:53;;;;;;;7.83;6.83;;;;;;;28.50;59.59;98417.50;4179347;28;20710;-86
2022/08/30 08:11:56;;;;;;;7.80;6.87;;;;;;;28.52;60.05;98412.72;4179402;28;20624;-86
2022/08/30 08:13:59;;;;;;;7.30;6.60;;;;;;;28.62;60.41;98419.34;4186697;28;20612;-87
2022/08/30 08:16:03;;;;;;;7.90;7.10;;;;;;;28.86;59.67;98420.56;4191663;28;20690;-87
2022/08/30 08:18:07;;;;;;;8.27;7.27;;;;;;;29.02;58.82;98415.56;4210572;28;20619;-87
2022/08/30 08:20:11;;;;;;;7.90;7.10;;;;;;;29.12;58.90;98413.22;4179207;28;20669;-86
2022/08/30 08:22:14;;;;;;;8.63;6.40;;;;;;;29.22;58.64;98411.75;4175879;28;20626;-87
2022/08/30 08:24:23;;;;;;;8.47;7.10;;;;;;;29.35;58.23;98410.88;4175335;28;21204;-86
2022/08/30 08:26:26;;;;;;;8.07;6.67;;;;;;;29.44;58.14;98415.81;4176346;28;20691;-86
2022/08/30 08:28:29;;;;;;;7.00;6.30;;;;;;;29.56;58.06;98408.72;4162455;28;20752;-87
2022/08/30 08:30:34;;;;;;;8.50;7.50;;;;;;;29.61;57.43;98406.19;4175690;28;21180;-87
2022/08/30 08:32:37;;;;;;;8.20;7.40;;;;;;;29.69;57.10;98414.00;4177494;28;20656;-87
2022/08/30 08:34:45;;;;;;;8.77;7.20;;;;;;;29.89;57.41;98417.44;4174671;28;20678;-86
2022/08/30 08:36:50;;;;;;;7.90;7.00;;;;;;;30.05;57.37;98415.03;4177163;28;20992;-87
2022/08/30 08:38:53;;;;;;;7.20;6.27;;;;;;;30.19;56.82;98416.56;4180227;28;20690;-87
2022/08/30 08:41:05;;;;;;;7.60;6.90;;;;;;;30.31;55.29;98420.22;4178764;28;20625;-86
2022/08/30 08:43:13;;;;;;;7.70;7.00;;;;;;;30.42;56.16;98419.50;4175696;28;20756;-87
2022/08/30 08:45:21;;;;;;;8.40;7.00;;;;;;;30.59;55.77;98416.84;4170686;28;21059;-87
2022/08/30 08:47:30;;;;;;;7.87;6.37;;;;;;;30.67;56.24;98408.50;4174801;28;21009;-87
2022/08/30 08:49:35;;;;;;;7.23;5.70;;;;;;;30.60;56.61;98409.63;4178031;28;20744;-87
2022/08/30 08:54:05;;;;;;;8.60;6.00;;;;;;;30.86;53.33;98396.69;4175815;28;20623;-87
2022/08/30 08:56:12;;;;;;;6.90;6.20;;;;;;;30.84;52.50;98400.63;4175716;28;20643;-87
2022/08/30 08:58:21;;;;;;;6.63;6.03;;;;;;;30.82;53.72;98395.47;4174103;28;21047;-87
2022/08/30 09:00:25;;;;;;;6.93;6.07;;;;;;;30.90;53.14;98395.22;4174620;28;21213;-88
2022/08/30 09:02:30;;;;;;;7.07;6.10;;;;;;;30.93;53.64;98395.59;4177114;28;21206;-87
2022/08/30 09:04:36;;;;;;;6.80;6.17;;;;;;;31.13;53.54;98393.47;4175131;28;21226;-89
2022/08/30 09:06:53;;;;;;;6.37;5.53;;;;;;;31.26;51.36;98396.03;4191437;28;20667;-87
2022/08/30 09:08:56;;;;;;;7.43;5.40;;;;;;;31.32;52.71;98400.50;4175679;28;20706;-90
2022/08/30 09:11:02;;;;;;;6.77;6.17;;;;;;;31.27;52.38;98389.56;4168389;28;20625;-88
2022/08/30 09:13:08;;;;;;;8.40;6.47;;;;;;;31.28;50.93;98388.53;4155253;28;20628;-88
2022/08/30 09:15:22;;;;;;;6.53;5.73;;;;;;;31.27;52.11;98386.06;4176653;28;21067;-86
2022/08/30 09:17:25;;;;;;;7.50;6.33;;;;;;;31.35;52.74;98378.47;4171987;28;20736;-87
2022/08/30 09:19:41;;;;;;;6.63;6.03;;;;;;;31.51;53.82;98377.84;4175528;28;20653;-87
2022/08/30 09:21:44;;;;;;;6.33;5.60;;;;;;;31.60;51.84;98376.50;4159314;28;20637;-87
2022/08/30 09:26:37;;;;;;;6.90;6.30;;;;;;;31.51;51.94;98380.56;4221229;27;21126;-89
2022/08/30 09:28:45;;;;;;;9.53;6.30;;;;;;;31.54;52.96;98363.91;4185001;28;20636;-87
2022/08/30 09:31:01;;;;;;;7.87;6.40;;;;;;;31.60;52.00;98371.91;4206511;28;21202;-88
2022/08/30 09:33:07;;;;;;;6.73;6.03;;;;;;;31.64;52.25;98361.50;4187905;28;20640;-88
2022/08/30 09:35:13;;;;;;;7.13;6.53;;;;;;;31.69;53.16;98369.72;4191931;28;21018;-86
2022/08/30 09:37:26;;;;;;;7.10;6.27;;;;;;;31.61;52.39;98370.03;4209265;28;21234;-86
2022/08/30 09:39:31;;;;;;;6.80;6.20;;;;;;;31.63;52.56;98370.63;4189841;28;20641;-86
2022/08/30 09:41:41;;;;;;;6.70;6.10;;;;;;;31.60;51.86;98371.91;4225268;28;20770;-86
2022/08/30 09:43:45;;;;;;;6.97;6.30;;;;;;;31.58;51.61;98360.53;4220295;28;20642;-86
2022/08/30 09:46:08;;;;;;;6.83;6.13;;;;;;;31.66;52.05;98359.38;4191880;28;20659;-88
2022/08/30 09:48:29;;;;;;;7.03;6.43;;;;;;;31.87;53.20;98356.16;4206545;28;20627;-87
2022/08/30 09:50:35;;;;;;;6.77;6.17;;;;;;;32.01;53.32;98355.72;4186021;28;21009;-86